sensor_id;sensor_type;location;lat;lon;timestamp;pressure;altitude;pressure_sealevel;temperature;humidity
61384;BME280;63511;49.346;8.798;2023-03-13T00:01:37;99687.00;;;10.87;74.20
61384;BME280;63511;49.346;8.798;2023-03-13T00:04:06;99683.94;;;10.05;78.05
61384;BME280;63511;49.346;8.798;2023-03-13T00:06:34;99687.06;;;10.15;77.18
61384;BME280;63511;49.346;8.798;2023-03-13T00:09:03;99685.47;;;10.03;78.40
61384;BME280;63511;49.346;8.798;2023-03-13T00:11:30;99679.94;;;10.08;78.55
61384;BME280;63511;49.346;8.798;2023-03-13T00:13:58;99677.03;;;10.45;75.97
61384;BME280;63511;49.346;8.798;2023-03-13T00:16:27;99677.44;;;10.38;76.86
61384;BME280;63511;49.346;8.798;2023-03-13T00:18:55;99670.84;;;10.54;76.51
61384;BME280;63511;49.346;8.798;2023-03-13T00:21:25;99667.59;;;10.57;76.84
61384;BME280;63511;49.346;8.798;2023-03-13T00:23:52;99649.41;;;10.77;75.45
61384;BME280;63511;49.346;8.798;2023-03-13T00:26:21;99651.59;;;10.71;75.45
61384;BME280;63511;49.346;8.798;2023-03-13T00:28:50;99653.84;;;10.67;75.53
61384;BME280;63511;49.346;8.798;2023-03-13T00:31:19;99660.19;;;10.75;76.78
61384;BME280;63511;49.346;8.798;2023-03-13T00:33:48;99637.66;;;10.94;74.92
61384;BME280;63511;49.346;8.798;2023-03-13T00:36:18;99641.28;;;10.68;75.92
61384;BME280;63511;49.346;8.798;2023-03-13T00:38:46;99629.72;;;10.72;76.16
61384;BME280;63511;49.346;8.798;2023-03-13T00:41:14;99628.38;;;10.62;76.69
61384;BME280;63511;49.346;8.798;2023-03-13T00:43:43;99623.81;;;10.71;76.15
61384;BME280;63511;49.346;8.798;2023-03-13T00:46:11;99621.25;;;10.40;77.25
61384;BME280;63511;49.346;8.798;2023-03-13T00:48:40;99614.84;;;10.47;77.01
61384;BME280;63511;49.346;8.798;2023-03-13T00:51:08;99620.72;;;10.46;77.48
61384;BME280;63511;49.346;8.798;2023-03-13T00:53:35;99609.28;;;10.67;76.84
61384;BME280;63511;49.346;8.798;2023-03-13T00:56:05;99600.31;;;10.57;77.86
61384;BME280;63511;49.346;8.798;2023-03-13T00:58:34;99603.81;;;10.45;77.85
61384;BME280;63511;49.346;8.798;2023-03-13T01:01:08;99593.19;;;10.50;77.81
61384;BME280;63511;49.346;8.798;2023-03-13T01:03:36;99580.25;;;10.75;76.94
61384;BME280;63511;49.346;8.798;2023-03-13T01:06:05;99586.22;;;10.61;77.09
61384;BME280;63511;49.346;8.798;2023-03-13T01:08:32;99590.69;;;10.81;76.50
61384;BME280;63511;49.346;8.798;2023-03-13T01:10:59;99585.44;;;10.78;76.80
61384;BME280;63511;49.346;8.798;2023-03-13T01:13:31;99582.47;;;10.85;76.54
61384;BME280;63511;49.346;8.798;2023-03-13T01:16:01;99581.53;;;10.83;76.35
61384;BME280;63511;49.346;8.798;2023-03-13T01:18:28;99576.41;;;10.82;75.65
61384;BME280;63511;49.346;8.798;2023-03-13T01:20:54;99568.91;;;10.99;76.60
61384;BME280;63511;49.346;8.798;2023-03-13T01:23:23;99544.69;;;10.87;75.72
61384;BME280;63511;49.346;8.798;2023-03-13T01:25:50;99554.06;;;10.89;76.80
61384;BME280;63511;49.346;8.798;2023-03-13T01:28:16;99549.31;;;10.79;76.64
61384;BME280;63511;49.346;8.798;2023-03-13T01:30:44;99556.22;;;10.98;75.59
61384;BME280;63511;49.346;8.798;2023-03-13T01:33:11;99539.00;;;10.91;75.61
61384;BME280;63511;49.346;8.798;2023-03-13T01:35:37;99536.13;;;10.69;77.21
61384;BME280;63511;49.346;8.798;2023-03-13T01:38:04;99535.66;;;10.76;76.65
61384;BME280;63511;49.346;8.798;2023-03-13T01:40:38;99526.53;;;10.94;76.31
61384;BME280;63511;49.346;8.798;2023-03-13T01:43:16;99521.72;;;10.98;75.93
61384;BME280;63511;49.346;8.798;2023-03-13T01:46:07;99522.25;;;10.77;77.41
61384;BME280;63511;49.346;8.798;2023-03-13T01:48:43;99518.22;;;10.80;77.06
61384;BME280;63511;49.346;8.798;2023-03-13T01:51:13;99514.25;;;10.69;77.13
61384;BME280;63511;49.346;8.798;2023-03-13T01:53:43;99521.59;;;10.64;78.17
61384;BME280;63511;49.346;8.798;2023-03-13T01:56:15;99517.09;;;10.59;78.38
61384;BME280;63511;49.346;8.798;2023-03-13T01:58:43;99511.94;;;10.72;77.18
61384;BME280;63511;49.346;8.798;2023-03-13T02:01:11;99509.84;;;10.65;77.75
61384;BME280;63511;49.346;8.798;2023-03-13T02:03:39;99498.13;;;10.98;75.97
61384;BME280;63511;49.346;8.798;2023-03-13T02:06:07;99491.16;;;10.94;76.45
61384;BME280;63511;49.346;8.798;2023-03-13T02:08:37;99495.84;;;10.39;77.94
61384;BME280;63511;49.346;8.798;2023-03-13T02:11:08;99495.09;;;10.56;78.87
61384;BME280;63511;49.346;8.798;2023-03-13T02:13:38;99492.28;;;10.36;78.40
61384;BME280;63511;49.346;8.798;2023-03-13T02:16:05;99485.19;;;10.45;79.36
61384;BME280;63511;49.346;8.798;2023-03-13T02:18:35;99485.19;;;10.45;78.65
61384;BME280;63511;49.346;8.798;2023-03-13T02:21:09;99481.53;;;10.87;77.04
61384;BME280;63511;49.346;8.798;2023-03-13T02:23:43;99456.91;;;10.67;77.50
61384;BME280;63511;49.346;8.798;2023-03-13T02:26:14;99443.56;;;10.69;76.47
61384;BME280;63511;49.346;8.798;2023-03-13T02:28:41;99459.59;;;10.70;78.15
61384;BME280;63511;49.346;8.798;2023-03-13T02:31:08;99440.38;;;10.10;78.65
61384;BME280;63511;49.346;8.798;2023-03-13T02:33:38;99458.72;;;10.07;80.82
61384;BME280;63511;49.346;8.798;2023-03-13T02:36:06;99444.34;;;10.36;79.84
61384;BME280;63511;49.346;8.798;2023-03-13T02:38:37;99431.59;;;10.03;81.66
61384;BME280;63511;49.346;8.798;2023-03-13T02:41:05;99434.03;;;10.16;81.37
61384;BME280;63511;49.346;8.798;2023-03-13T02:43:34;99423.13;;;10.48;79.37
61384;BME280;63511;49.346;8.798;2023-03-13T02:46:07;99417.13;;;10.30;80.40
61384;BME280;63511;49.346;8.798;2023-03-13T02:48:36;99400.16;;;10.13;80.24
61384;BME280;63511;49.346;8.798;2023-03-13T02:51:05;99414.63;;;10.01;81.91
61384;BME280;63511;49.346;8.798;2023-03-13T02:53:36;99411.09;;;9.97;82.18
61384;BME280;63511;49.346;8.798;2023-03-13T02:56:04;99404.56;;;10.32;81.53
61384;BME280;63511;49.346;8.798;2023-03-13T02:58:38;99404.50;;;10.62;79.71
61384;BME280;63511;49.346;8.798;2023-03-13T03:01:05;99407.19;;;10.49;81.05
61384;BME280;63511;49.346;8.798;2023-03-13T03:03:34;99413.28;;;11.19;78.31
61384;BME280;63511;49.346;8.798;2023-03-13T03:06:02;99405.91;;;11.91;75.13
61384;BME280;63511;49.346;8.798;2023-03-13T03:08:29;99394.50;;;12.19;73.77
61384;BME280;63511;49.346;8.798;2023-03-13T03:10:55;99384.69;;;12.63;72.06
61384;BME280;63511;49.346;8.798;2023-03-13T03:13:22;99369.22;;;12.38;72.50
61384;BME280;63511;49.346;8.798;2023-03-13T03:15:50;99365.34;;;12.85;71.77
61384;BME280;63511;49.346;8.798;2023-03-13T03:18:17;99378.44;;;12.74;71.57
61384;BME280;63511;49.346;8.798;2023-03-13T03:20:43;99364.19;;;12.97;71.34
61384;BME280;63511;49.346;8.798;2023-03-13T03:23:10;99364.53;;;12.86;71.54
61384;BME280;63511;49.346;8.798;2023-03-13T03:25:37;99362.69;;;13.02;71.25
61384;BME280;63511;49.346;8.798;2023-03-13T03:28:04;99359.25;;;13.40;69.80
61384;BME280;63511;49.346;8.798;2023-03-13T03:30:30;99345.97;;;13.90;68.83
61384;BME280;63511;49.346;8.798;2023-03-13T03:32:58;99356.56;;;13.37;69.86
61384;BME280;63511;49.346;8.798;2023-03-13T03:35:25;99349.72;;;13.78;68.93
61384;BME280;63511;49.346;8.798;2023-03-13T03:37:52;99354.28;;;13.43;70.02
61384;BME280;63511;49.346;8.798;2023-03-13T03:40:18;99351.28;;;13.53;70.31
61384;BME280;63511;49.346;8.798;2023-03-13T03:42:45;99348.28;;;13.62;69.85
61384;BME280;63511;49.346;8.798;2023-03-13T03:45:12;99337.59;;;13.71;69.73
61384;BME280;63511;49.346;8.798;2023-03-13T03:47:41;99352.94;;;13.51;70.28
61384;BME280;63511;49.346;8.798;2023-03-13T03:50:10;99341.28;;;13.79;69.80
61384;BME280;63511;49.346;8.798;2023-03-13T03:52:37;99349.81;;;13.58;70.60
61384;BME280;63511;49.346;8.798;2023-03-13T03:55:12;99342.75;;;13.72;69.70
61384;BME280;63511;49.346;8.798;2023-03-13T03:57:38;99332.13;;;13.60;70.65
61384;BME280;63511;49.346;8.798;2023-03-13T04:00:06;99326.84;;;13.76;70.10
61384;BME280;63511;49.346;8.798;2023-03-13T04:02:34;99329.25;;;13.95;70.29
61384;BME280;63511;49.346;8.798;2023-03-13T04:05:02;99337.03;;;13.78;70.67
61384;BME280;63511;49.346;8.798;2023-03-13T04:07:30;99333.34;;;13.70;71.42
61384;BME280;63511;49.346;8.798;2023-03-13T04:09:57;99335.28;;;13.54;71.95
61384;BME280;63511;49.346;8.798;2023-03-13T04:12:24;99338.06;;;13.60;72.11
61384;BME280;63511;49.346;8.798;2023-03-13T04:14:50;99334.44;;;13.76;71.79
61384;BME280;63511;49.346;8.798;2023-03-13T04:17:19;99337.28;;;13.63;72.09
61384;BME280;63511;49.346;8.798;2023-03-13T04:19:45;99343.03;;;13.80;72.31
61384;BME280;63511;49.346;8.798;2023-03-13T04:22:12;99352.03;;;13.72;72.88
61384;BME280;63511;49.346;8.798;2023-03-13T04:24:40;99345.94;;;13.68;73.83
61384;BME280;63511;49.346;8.798;2023-03-13T04:27:06;99348.69;;;13.73;73.66
61384;BME280;63511;49.346;8.798;2023-03-13T04:29:33;99339.28;;;13.92;73.62
61384;BME280;63511;49.346;8.798;2023-03-13T04:32:00;99334.38;;;13.75;73.81
61384;BME280;63511;49.346;8.798;2023-03-13T04:34:29;99334.16;;;13.91;74.11
61384;BME280;63511;49.346;8.798;2023-03-13T04:36:55;99327.94;;;13.83;74.22
61384;BME280;63511;49.346;8.798;2023-03-13T04:39:22;99318.41;;;13.77;74.50
61384;BME280;63511;49.346;8.798;2023-03-13T04:41:51;99315.03;;;13.78;74.65
61384;BME280;63511;49.346;8.798;2023-03-13T04:44:18;99322.72;;;13.80;74.52
61384;BME280;63511;49.346;8.798;2023-03-13T04:46:45;99321.28;;;13.86;74.20
61384;BME280;63511;49.346;8.798;2023-03-13T04:49:12;99313.72;;;13.66;75.39
61384;BME280;63511;49.346;8.798;2023-03-13T04:51:41;99303.00;;;13.95;74.52
61384;BME280;63511;49.346;8.798;2023-03-13T04:54:08;99294.94;;;13.83;74.44
61384;BME280;63511;49.346;8.798;2023-03-13T04:56:34;99301.78;;;14.08;73.98
61384;BME280;63511;49.346;8.798;2023-03-13T04:59:03;99296.84;;;13.88;74.47
61384;BME280;63511;49.346;8.798;2023-03-13T05:01:29;99301.53;;;13.78;74.83
61384;BME280;63511;49.346;8.798;2023-03-13T05:03:56;99301.63;;;14.03;74.48
61384;BME280;63511;49.346;8.798;2023-03-13T05:06:23;99298.56;;;13.89;74.29
61384;BME280;63511;49.346;8.798;2023-03-13T05:08:52;99297.22;;;13.99;74.28
61384;BME280;63511;49.346;8.798;2023-03-13T05:11:19;99311.25;;;13.89;74.66
61384;BME280;63511;49.346;8.798;2023-03-13T05:13:46;99306.34;;;13.72;75.10
61384;BME280;63511;49.346;8.798;2023-03-13T05:16:14;99302.50;;;13.81;75.04
61384;BME280;63511;49.346;8.798;2023-03-13T05:18:40;99304.00;;;13.76;74.90
61384;BME280;63511;49.346;8.798;2023-03-13T05:21:07;99304.19;;;14.04;73.59
61384;BME280;63511;49.346;8.798;2023-03-13T05:23:34;99291.47;;;14.03;73.91
61384;BME280;63511;49.346;8.798;2023-03-13T05:26:01;99297.91;;;13.95;73.80
61384;BME280;63511;49.346;8.798;2023-03-13T05:28:28;99289.66;;;14.00;73.68
61384;BME280;63511;49.346;8.798;2023-03-13T05:30:54;99291.50;;;14.04;73.47
61384;BME280;63511;49.346;8.798;2023-03-13T05:33:22;99296.16;;;13.92;73.65
61384;BME280;63511;49.346;8.798;2023-03-13T05:35:49;99281.88;;;13.96;73.39
61384;BME280;63511;49.346;8.798;2023-03-13T05:38:21;99280.03;;;14.14;73.16
61384;BME280;63511;49.346;8.798;2023-03-13T05:40:48;99276.25;;;14.03;73.49
61384;BME280;63511;49.346;8.798;2023-03-13T05:43:14;99285.19;;;13.93;73.41
61384;BME280;63511;49.346;8.798;2023-03-13T05:45:41;99286.16;;;13.97;73.90
61384;BME280;63511;49.346;8.798;2023-03-13T05:48:08;99291.78;;;13.88;73.76
61384;BME280;63511;49.346;8.798;2023-03-13T05:50:36;99273.09;;;14.10;72.95
61384;BME280;63511;49.346;8.798;2023-03-13T05:53:02;99278.59;;;13.98;73.46
61384;BME280;63511;49.346;8.798;2023-03-13T05:55:29;99279.25;;;14.17;73.14
61384;BME280;63511;49.346;8.798;2023-03-13T05:57:56;99283.16;;;14.07;73.32
61384;BME280;63511;49.346;8.798;2023-03-13T06:00:23;99292.97;;;13.98;73.53
61384;BME280;63511;49.346;8.798;2023-03-13T06:02:49;99282.03;;;14.23;72.96
61384;BME280;63511;49.346;8.798;2023-03-13T06:05:23;99265.34;;;14.29;72.46
61384;BME280;63511;49.346;8.798;2023-03-13T06:07:51;99272.41;;;14.14;72.86
61384;BME280;63511;49.346;8.798;2023-03-13T06:10:18;99262.22;;;14.36;72.34
61384;BME280;63511;49.346;8.798;2023-03-13T06:12:51;99264.50;;;14.07;73.79
61384;BME280;63511;49.346;8.798;2023-03-13T06:15:17;99273.16;;;14.12;73.31
61384;BME280;63511;49.346;8.798;2023-03-13T06:20:13;99264.00;;;14.39;72.03
61384;BME280;63511;49.346;8.798;2023-03-13T06:22:40;99276.38;;;14.30;73.07
61384;BME280;63511;49.346;8.798;2023-03-13T06:25:09;99273.84;;;14.31;72.86
61384;BME280;63511;49.346;8.798;2023-03-13T06:27:35;99284.06;;;14.09;74.63
61384;BME280;63511;49.346;8.798;2023-03-13T06:30:02;99279.41;;;14.21;74.95
61384;BME280;63511;49.346;8.798;2023-03-13T06:32:29;99266.66;;;14.20;74.93
61384;BME280;63511;49.346;8.798;2023-03-13T06:34:56;99271.97;;;14.26;74.85
61384;BME280;63511;49.346;8.798;2023-03-13T06:37:24;99263.34;;;14.44;74.34
61384;BME280;63511;49.346;8.798;2023-03-13T06:39:50;99279.25;;;14.39;75.10
61384;BME280;63511;49.346;8.798;2023-03-13T06:42:18;99276.28;;;14.51;74.89
61384;BME280;63511;49.346;8.798;2023-03-13T06:44:44;99289.34;;;14.37;75.72
61384;BME280;63511;49.346;8.798;2023-03-13T06:47:11;99289.34;;;14.15;76.44
61384;BME280;63511;49.346;8.798;2023-03-13T06:49:37;99284.00;;;14.54;75.68
61384;BME280;63511;49.346;8.798;2023-03-13T06:52:04;99284.50;;;14.21;76.60
61384;BME280;63511;49.346;8.798;2023-03-13T06:54:31;99278.91;;;14.30;76.89
61384;BME280;63511;49.346;8.798;2023-03-13T06:56:57;99277.16;;;14.29;76.49
61384;BME280;63511;49.346;8.798;2023-03-13T06:59:25;99270.75;;;14.38;76.71
61384;BME280;63511;49.346;8.798;2023-03-13T07:01:52;99263.81;;;14.34;77.24
61384;BME280;63511;49.346;8.798;2023-03-13T07:04:18;99247.97;;;14.40;77.32
61384;BME280;63511;49.346;8.798;2023-03-13T07:06:44;99251.13;;;14.58;76.53
61384;BME280;63511;49.346;8.798;2023-03-13T07:09:11;99255.75;;;14.44;76.96
61384;BME280;63511;49.346;8.798;2023-03-13T07:11:37;99246.38;;;14.43;77.64
61384;BME280;63511;49.346;8.798;2023-03-13T07:14:04;99248.63;;;14.60;76.67
61384;BME280;63511;49.346;8.798;2023-03-13T07:16:32;99240.19;;;14.61;77.25
61384;BME280;63511;49.346;8.798;2023-03-13T07:18:58;99238.91;;;14.48;77.21
61384;BME280;63511;49.346;8.798;2023-03-13T07:21:25;99236.28;;;14.70;76.86
61384;BME280;63511;49.346;8.798;2023-03-13T07:23:51;99235.00;;;14.83;76.79
61384;BME280;63511;49.346;8.798;2023-03-13T07:26:18;99226.78;;;14.65;77.24
61384;BME280;63511;49.346;8.798;2023-03-13T07:28:44;99226.31;;;14.76;77.10
61384;BME280;63511;49.346;8.798;2023-03-13T07:31:13;99216.31;;;14.81;77.19
61384;BME280;63511;49.346;8.798;2023-03-13T07:33:41;99230.72;;;14.82;76.58
61384;BME280;63511;49.346;8.798;2023-03-13T07:36:09;99219.34;;;14.98;76.39
61384;BME280;63511;49.346;8.798;2023-03-13T07:38:38;99229.28;;;14.90;76.20
61384;BME280;63511;49.346;8.798;2023-03-13T07:41:05;99229.97;;;14.84;76.71
61384;BME280;63511;49.346;8.798;2023-03-13T07:43:31;99207.09;;;15.11;76.33
61384;BME280;63511;49.346;8.798;2023-03-13T07:45:59;99235.81;;;15.09;76.74
61384;BME280;63511;49.346;8.798;2023-03-13T07:48:28;99234.00;;;15.05;76.12
61384;BME280;63511;49.346;8.798;2023-03-13T07:50:56;99242.03;;;15.17;76.34
61384;BME280;63511;49.346;8.798;2023-03-13T07:53:23;99254.22;;;15.28;75.41
61384;BME280;63511;49.346;8.798;2023-03-13T07:55:54;99250.66;;;15.22;75.31
61384;BME280;63511;49.346;8.798;2023-03-13T07:58:22;99249.66;;;15.17;76.31
61384;BME280;63511;49.346;8.798;2023-03-13T08:00:48;99241.72;;;15.35;75.66
61384;BME280;63511;49.346;8.798;2023-03-13T08:03:15;99234.91;;;15.34;75.87
61384;BME280;63511;49.346;8.798;2023-03-13T08:05:42;99228.94;;;15.60;74.41
61384;BME280;63511;49.346;8.798;2023-03-13T08:08:09;99234.19;;;15.38;74.78
61384;BME280;63511;49.346;8.798;2023-03-13T08:10:36;99230.59;;;15.31;75.28
61384;BME280;63511;49.346;8.798;2023-03-13T08:13:03;99223.69;;;15.27;75.50
61384;BME280;63511;49.346;8.798;2023-03-13T08:15:29;99238.16;;;15.29;75.03
61384;BME280;63511;49.346;8.798;2023-03-13T08:17:56;99242.97;;;15.20;75.01
61384;BME280;63511;49.346;8.798;2023-03-13T08:20:22;99235.53;;;15.26;74.96
61384;BME280;63511;49.346;8.798;2023-03-13T08:22:49;99233.94;;;15.30;74.86
61384;BME280;63511;49.346;8.798;2023-03-13T08:25:17;99243.78;;;15.19;75.05
61384;BME280;63511;49.346;8.798;2023-03-13T08:27:43;99234.22;;;15.39;74.59
61384;BME280;63511;49.346;8.798;2023-03-13T08:30:11;99233.25;;;15.07;75.09
61384;BME280;63511;49.346;8.798;2023-03-13T08:32:37;99241.91;;;15.14;75.40
61384;BME280;63511;49.346;8.798;2023-03-13T08:35:05;99212.25;;;15.13;74.90
61384;BME280;63511;49.346;8.798;2023-03-13T08:37:31;99234.75;;;15.29;74.39
61384;BME280;63511;49.346;8.798;2023-03-13T08:40:05;99241.28;;;15.21;75.05
61384;BME280;63511;49.346;8.798;2023-03-13T08:42:37;99231.31;;;15.27;74.72
61384;BME280;63511;49.346;8.798;2023-03-13T08:45:05;99231.50;;;15.33;74.17
61384;BME280;63511;49.346;8.798;2023-03-13T08:47:32;99234.06;;;15.33;74.87
61384;BME280;63511;49.346;8.798;2023-03-13T08:49:59;99238.81;;;15.22;75.35
61384;BME280;63511;49.346;8.798;2023-03-13T08:52:25;99232.84;;;15.22;75.08
61384;BME280;63511;49.346;8.798;2023-03-13T08:54:52;99237.47;;;15.35;74.22
61384;BME280;63511;49.346;8.798;2023-03-13T08:57:19;99229.03;;;15.36;74.52
61384;BME280;63511;49.346;8.798;2023-03-13T08:59:47;99223.97;;;15.36;74.31
61384;BME280;63511;49.346;8.798;2023-03-13T09:02:13;99231.66;;;15.39;74.65
61384;BME280;63511;49.346;8.798;2023-03-13T09:04:44;99226.63;;;15.41;74.39
61384;BME280;63511;49.346;8.798;2023-03-13T09:07:14;99218.88;;;15.36;74.25
61384;BME280;63511;49.346;8.798;2023-03-13T09:09:41;99224.28;;;15.47;73.94
61384;BME280;63511;49.346;8.798;2023-03-13T09:12:08;99222.34;;;15.38;74.00
61384;BME280;63511;49.346;8.798;2023-03-13T09:14:35;99230.00;;;15.40;74.14
61384;BME280;63511;49.346;8.798;2023-03-13T09:17:03;99235.50;;;15.52;73.56
61384;BME280;63511;49.346;8.798;2023-03-13T09:19:29;99229.44;;;15.50;74.20
61384;BME280;63511;49.346;8.798;2023-03-13T09:21:56;99221.78;;;15.48;73.62
61384;BME280;63511;49.346;8.798;2023-03-13T09:24:22;99222.66;;;15.77;73.06
61384;BME280;63511;49.346;8.798;2023-03-13T09:26:49;99198.25;;;15.84;73.01
61384;BME280;63511;49.346;8.798;2023-03-13T09:29:15;99203.38;;;16.16;71.47
61384;BME280;63511;49.346;8.798;2023-03-13T09:31:42;99202.94;;;16.64;71.01
61384;BME280;63511;49.346;8.798;2023-03-13T09:34:10;99210.56;;;16.64;69.54
61384;BME280;63511;49.346;8.798;2023-03-13T09:36:36;99193.66;;;16.66;70.39
61384;BME280;63511;49.346;8.798;2023-03-13T09:39:03;99208.22;;;16.39;70.75
61384;BME280;63511;49.346;8.798;2023-03-13T09:41:34;99210.09;;;16.46;70.07
61384;BME280;63511;49.346;8.798;2023-03-13T09:44:05;99196.44;;;16.42;69.95
61384;BME280;63511;49.346;8.798;2023-03-13T09:46:38;99210.09;;;16.46;70.49
61384;BME280;63511;49.346;8.798;2023-03-13T09:49:17;99197.97;;;16.37;70.26
61384;BME280;63511;49.346;8.798;2023-03-13T09:51:52;99200.03;;;16.50;69.69
61384;BME280;63511;49.346;8.798;2023-03-13T09:54:25;99196.91;;;16.61;69.62
61384;BME280;63511;49.346;8.798;2023-03-13T09:56:55;99205.59;;;16.37;70.47
61384;BME280;63511;49.346;8.798;2023-03-13T09:59:32;99205.44;;;16.30;70.07
61384;BME280;63511;49.346;8.798;2023-03-13T10:02:06;99197.25;;;16.41;69.68
61384;BME280;63511;49.346;8.798;2023-03-13T10:04:45;99185.47;;;16.46;69.90
61384;BME280;63511;49.346;8.798;2023-03-13T10:07:14;99188.03;;;16.46;69.41
61384;BME280;63511;49.346;8.798;2023-03-13T10:09:46;99193.41;;;16.24;70.35
61384;BME280;63511;49.346;8.798;2023-03-13T10:12:17;99185.38;;;16.42;69.72
61384;BME280;63511;49.346;8.798;2023-03-13T10:14:53;99172.53;;;16.39;69.96
61384;BME280;63511;49.346;8.798;2023-03-13T10:17:30;99170.00;;;16.72;69.25
61384;BME280;63511;49.346;8.798;2023-03-13T10:20:00;99170.94;;;16.42;69.28
61384;BME280;63511;49.346;8.798;2023-03-13T10:22:33;99175.59;;;16.58;69.43
61384;BME280;63511;49.346;8.798;2023-03-13T10:25:03;99170.38;;;16.54;68.86
61384;BME280;63511;49.346;8.798;2023-03-13T10:27:42;99174.19;;;16.70;68.26
61384;BME280;63511;49.346;8.798;2023-03-13T10:30:19;99179.13;;;16.98;68.17
61384;BME280;63511;49.346;8.798;2023-03-13T10:32:47;99164.78;;;17.03;67.52
61384;BME280;63511;49.346;8.798;2023-03-13T10:35:24;99161.50;;;17.09;67.26
61384;BME280;63511;49.346;8.798;2023-03-13T10:38:02;99157.31;;;17.12;66.77
61384;BME280;63511;49.346;8.798;2023-03-13T10:40:29;99144.13;;;17.70;66.47
61384;BME280;63511;49.346;8.798;2023-03-13T10:43:01;99155.50;;;17.88;65.95
61384;BME280;63511;49.346;8.798;2023-03-13T10:45:31;99154.59;;;17.84;65.73
61384;BME280;63511;49.346;8.798;2023-03-13T10:48:00;99144.56;;;17.51;65.73
61384;BME280;63511;49.346;8.798;2023-03-13T10:50:32;99137.53;;;17.83;66.39
61384;BME280;63511;49.346;8.798;2023-03-13T10:53:06;99138.16;;;17.70;66.19
61384;BME280;63511;49.346;8.798;2023-03-13T10:55:43;99130.00;;;17.47;66.14
61384;BME280;63511;49.346;8.798;2023-03-13T10:58:17;99123.84;;;17.79;65.78
61384;BME280;63511;49.346;8.798;2023-03-13T11:00:44;99117.38;;;17.97;65.20
61384;BME280;63511;49.346;8.798;2023-03-13T11:03:14;99111.09;;;18.29;63.91
61384;BME280;63511;49.346;8.798;2023-03-13T11:05:45;99101.50;;;18.13;64.44
61384;BME280;63511;49.346;8.798;2023-03-13T11:08:22;99106.00;;;18.29;64.06
61384;BME280;63511;49.346;8.798;2023-03-13T11:10:52;99091.72;;;18.42;63.42
61384;BME280;63511;49.346;8.798;2023-03-13T11:13:29;99080.09;;;18.60;62.88
61384;BME280;63511;49.346;8.798;2023-03-13T11:15:57;99070.00;;;18.68;62.16
61384;BME280;63511;49.346;8.798;2023-03-13T11:18:29;99058.59;;;19.08;61.65
61384;BME280;63511;49.346;8.798;2023-03-13T11:21:03;99061.25;;;19.14;61.45
61384;BME280;63511;49.346;8.798;2023-03-13T11:23:34;99061.47;;;19.32;61.76
61384;BME280;63511;49.346;8.798;2023-03-13T11:26:09;99050.69;;;19.59;60.85
61384;BME280;63511;49.346;8.798;2023-03-13T11:28:48;99044.00;;;19.69;60.62
61384;BME280;63511;49.346;8.798;2023-03-13T11:31:20;99037.28;;;19.84;60.36
61384;BME280;63511;49.346;8.798;2023-03-13T11:33:53;99037.03;;;19.59;60.06
61384;BME280;63511;49.346;8.798;2023-03-13T11:36:30;99027.75;;;18.97;60.06
61384;BME280;63511;49.346;8.798;2023-03-13T11:39:30;99025.06;;;19.59;60.36
61384;BME280;63511;49.346;8.798;2023-03-13T11:42:06;99023.78;;;19.21;60.16
61384;BME280;63511;49.346;8.798;2023-03-13T11:44:47;99008.09;;;18.93;60.99
61384;BME280;63511;49.346;8.798;2023-03-13T11:47:37;99012.34;;;18.90;60.86
61384;BME280;63511;49.346;8.798;2023-03-13T11:50:29;99002.94;;;18.92;61.26
61384;BME280;63511;49.346;8.798;2023-03-13T11:53:27;98997.94;;;18.99;61.12
61384;BME280;63511;49.346;8.798;2023-03-13T11:56:02;98993.50;;;18.85;61.89
61384;BME280;63511;49.346;8.798;2023-03-13T11:58:48;98986.03;;;19.01;61.35
61384;BME280;63511;49.346;8.798;2023-03-13T12:01:20;98981.69;;;18.97;60.72
61384;BME280;63511;49.346;8.798;2023-03-13T12:03:55;98970.50;;;18.88;60.96
61384;BME280;63511;49.346;8.798;2023-03-13T12:06:28;98955.53;;;19.21;60.49
61384;BME280;63511;49.346;8.798;2023-03-13T12:09:01;98953.13;;;19.35;60.00
61384;BME280;63511;49.346;8.798;2023-03-13T12:11:32;98942.72;;;19.17;60.17
61384;BME280;63511;49.346;8.798;2023-03-13T12:14:10;98942.06;;;19.39;59.56
61384;BME280;63511;49.346;8.798;2023-03-13T12:16:40;98917.50;;;19.59;59.40
61384;BME280;63511;49.346;8.798;2023-03-13T12:19:10;98906.16;;;19.31;59.33
61384;BME280;63511;49.346;8.798;2023-03-13T12:21:47;98908.09;;;19.55;58.70
61384;BME280;63511;49.346;8.798;2023-03-13T12:24:31;98906.50;;;19.66;59.31
61384;BME280;63511;49.346;8.798;2023-03-13T12:27:01;98887.06;;;19.97;58.59
61384;BME280;63511;49.346;8.798;2023-03-13T12:29:40;98882.75;;;19.91;57.67
61384;BME280;63511;49.346;8.798;2023-03-13T12:32:12;98873.31;;;19.83;57.75
61384;BME280;63511;49.346;8.798;2023-03-13T12:34:50;98879.13;;;19.64;58.12
61384;BME280;63511;49.346;8.798;2023-03-13T12:37:24;98847.59;;;19.71;59.43
61384;BME280;63511;49.346;8.798;2023-03-13T12:39:58;98863.00;;;19.72;58.52
61384;BME280;63511;49.346;8.798;2023-03-13T12:42:39;98863.97;;;19.95;57.73
61384;BME280;63511;49.346;8.798;2023-03-13T12:45:13;98853.78;;;20.06;57.29
61384;BME280;63511;49.346;8.798;2023-03-13T12:47:57;98833.16;;;19.79;57.73
61384;BME280;63511;49.346;8.798;2023-03-13T12:50:36;98820.59;;;20.29;57.11
61384;BME280;63511;49.346;8.798;2023-03-13T12:53:23;98816.94;;;19.83;57.29
61384;BME280;63511;49.346;8.798;2023-03-13T12:56:14;98813.63;;;19.99;57.04
61384;BME280;63511;49.346;8.798;2023-03-13T12:58:46;98808.53;;;20.07;57.69
61384;BME280;63511;49.346;8.798;2023-03-13T13:01:20;98810.25;;;20.08;57.23
61384;BME280;63511;49.346;8.798;2023-03-13T13:03:52;98794.06;;;20.19;57.13
61384;BME280;63511;49.346;8.798;2023-03-13T13:06:23;98797.44;;;20.09;57.67
61384;BME280;63511;49.346;8.798;2023-03-13T13:09:07;98793.19;;;20.17;58.16
61384;BME280;63511;49.346;8.798;2023-03-13T13:11:44;98783.06;;;20.43;56.80
61384;BME280;63511;49.346;8.798;2023-03-13T13:14:55;98777.91;;;20.34;56.69
61384;BME280;63511;49.346;8.798;2023-03-13T13:17:48;98762.53;;;20.34;57.59